Igiugig, Alaska
Current Conditions -  °F | °C
As of 8:56 AM on Friday 31 Oct 2014 (Local Time) from PAIG Reporting Station
Overcast Overcast  
Wind Chill: 18°   Ceiling: 1100
Heat Index: 18°   Visibility: 10mi
Dew Point: 14°   Wind: 0mph
Humidity: 84%   Direction: NA
Pressure: 29.16"   Gusts: NA
Location:  59.32°N, 155.89°W
Report Text: PAIG 311656Z AUTO 00000KT 10SM OVC011 M08/M10 A2916 RMK AO2 TSNO T10771100 SLP878 $
Loading
Personal Weather Stations






























Interactive Weather Map
Tropical Storm Tracking
New forecast layout! Learn more

10-Day Weather Forecast

Advertisements
Track Severe Weather on mobile